Weather observations for the past three days for
Auburn Municipal Airport
Metric (Imperial)
Date Time (pdt) Wind (kph) Vis. (km) Weather Sky Cond. Temperature (ºC) Relative Humidity Wind Chill (°C) Heat Index (°C) Pressure Precipitation (cm)
Air Dwpt 6 hour altimeter (cm) sea level (mb) 1 hr 3 hr 6 hr
Max. Min.
08 15:15 W 9 16.09 Fair CLR 25 15 54% 26 76.28 0.0
08 14:55 W 9 16.09 Fair CLR 24 16 61% 25 76.3 0.0
08 14:35 Vrbl 7 16.09 Fair CLR 24 16 61% 25 76.33 0.0
08 14:15 W 11 16.09 Fair CLR 24 16 61% 25 76.33 0.0
08 13:55 W 9 16.09 Fair CLR 24 16 61% 25 76.33 0.0
08 13:35 W 15 16.09 Fair CLR 23 15 61% 76.35 0.0
08 13:15 W 13 16.09 Fair CLR 23 15 61% 76.35 0.0
08 12:55 W 13 16.09 Fair CLR 23 16 65% 76.35 0.0
08 12:35 W 13 16.09 Fair CLR 22 16 69% 76.35 0.0
08 12:15 W 15 16.09 Fair CLR 22 16 69% 76.38 0.0
08 11:55 W 15 16.09 Fair CLR 22 16 69% 76.38 0.0
08 11:35 W 7 16.09 Fair CLR 23 16 65% 76.38 0.0
08 11:15 Vrbl 6 16.09 Fair CLR 23 14 57% 76.38 0.0
08 10:55 Vrbl 7 16.09 Fair CLR 22 15 65% 76.38 0.0
08 10:35 W 9 16.09 Fair CLR 21 15 69% 76.38 0.0
08 10:15 Vrbl 9 16.09 Fair CLR 22 15 65% 76.38 0.0
08 09:55 W 7 16.09 Fair CLR 22 11 50% 76.35 0.0
08 09:35 NW 6 16.09 Fair CLR 21 11 53% 76.35 0.0
08 09:15 Calm 16.09 Fair CLR 21 9 46% 76.35 0.0
08 08:55 Calm 16.09 Fair CLR 20 9 49% 76.35 0.0
08 08:35 Calm 16.09 Fair CLR 20 8 46% 76.35 0.0
08 08:15 E 7 16.09 Fair CLR 19 8 49% 76.35 0.0
08 07:55 E 11 16.09 Fair CLR 18 8 52% 76.33 0.0
08 07:35 E 13 16.09 Fair CLR 17 8 56% 76.33 0.0
08 07:15 E 9 14.48 Fair CLR 16 8 59% 76.3 0.0
08 06:55 E 9 16.09 Fair CLR 15 8 63% 76.3 0.0
08 06:15 E 7 16.09 Fair CLR 14 8 67% 76.3 0.0
08 05:35 E 7 16.09 Fair CLR 14 9 72% 76.28 0.0
08 05:15 E 6 16.09 Fair CLR 14 9 72% 76.28 0.0
08 04:55 E 7 16.09 Fair CLR 14 10 77% 76.28 0.0
08 04:35 E 9 14.48 Fair CLR 15 10 72% 76.28 0.0
08 04:15 E 9 16.09 Fair CLR 15 11 77% 76.28 0.0
08 03:55 E 11 16.09 Fair CLR 15 12 82% 76.28 0.0
08 03:35 E 15 16.09 Fair CLR 15 13 88% 76.28 0.0
08 03:15 E 11 16.09 Fair CLR 15 13 88% 76.28 0.0
08 02:55 E 11 16.09 Fair CLR 15 14 94% 76.28 0.0
08 02:35 E 11 16.09 Fair CLR 15 14 94% 76.28 0.0
08 02:15 E 11 16.09 Fair CLR 16 14 88% 76.28 0.0
08 01:55 E 11 16.09 Fair CLR 16 14 88% 76.28 0.0
08 01:35 E 13 16.09 Fair CLR 16 15 94% 76.28 0.0
08 01:15 E 7 16.09 Fair CLR 17 15 88% 76.28 0.0
08 00:35 Calm 16.09 Fair CLR 17 15 88% 76.28 0.0
08 00:15 SE 9 16.09 Fair CLR 18 16 88% 76.28 0.0
07 23:55 SE 9 16.09 Fair CLR 18 16 88% 76.25 0.0
07 23:35 E 13 16.09 Fair CLR 18 16 88% 76.28 0.0
07 23:15 E 9 16.09 Fair CLR 18 16 88% 76.28 0.0
07 22:55 E 9 16.09 Fair CLR 17 16 94% 76.28 0.0
07 22:35 Calm 16.09 Fair CLR 17 16 94% 76.28 0.0
07 22:15 Calm 16.09 Fair CLR 18 16 88% 76.28 0.0
07 21:55 Calm 16.09 Fair CLR 18 16 88% 76.28 0.0
07 21:35 Calm 16.09 Fair CLR 17 16 94% 76.28 0.0
07 21:15 Calm 16.09 Fair CLR 17 16 94% 76.28 0.0
07 20:55 Calm 16.09 Fair CLR 17 17 100% 76.25 0.0
07 20:35 Calm 16.09 Fair CLR 17 17 100% 76.25 0.0
07 19:55 Calm 16.09 Fair CLR 21 17 78% 76.23 0.0
07 19:35 Calm 16.09 Fair CLR 22 16 69% 76.23 0.0
07 19:15 SW 7 16.09 Fair CLR 23 17 69% 76.23 0.0
07 18:55 W 7 16.09 Fair CLR 24 16 61% 25 76.23 0.0
07 18:35 SW 7 16.09 Fair CLR 24 16 61% 25 76.23 0.0
07 18:15 Calm 16.09 Fair CLR 24 16 61% 25 76.23 0.0
07 17:55 Calm 16.09 Fair CLR 25 16 57% 26 76.23 0.0
07 17:35 NW 6 16.09 Fair CLR 25 17 61% 26 76.25 0.0
07 17:15 Vrbl 7 16.09 Fair CLR 25 17 61% 26 76.25 0.0
07 16:55 Calm 16.09 Fair CLR 25 16 57% 26 76.25 0.0
07 16:35 W 9 14.48 Fair CLR 25 16 57% 26 76.25 0.0
07 16:15 Calm 14.48 Fair CLR 24 17 65% 25 76.28 0.0
07 15:55 W 7 16.09 Fair CLR 25 17 61% 26 76.28 0.0
07 15:35 Vrbl 7 16.09 Fair CLR 25 17 61% 26 76.3 0.0
07 15:15 W 13 16.09 Fair CLR 25 17 61% 26 76.33 0.0
07 14:55 NW 9 16.09 Fair CLR 24 17 65% 25 76.33 0.0
07 14:35 Calm 16.09 Fair CLR 24 17 65% 25 76.35 0.0
07 14:15 Vrbl 7 16.09 Fair CLR 24 17 65% 25 76.38 0.0
07 13:55 Vrbl 6 16.09 Fair CLR 23 17 69% 76.38 0.0
07 13:35 Vrbl 6 G 19 16.09 Fair CLR 23 17 69% 76.4 0.0
07 13:15 Vrbl 7 14.48 Fair CLR 23 17 69% 76.4 0.0
07 12:35 Vrbl 9 G 19 16.09 Fair CLR 22 17 73% 76.43 0.0
07 12:15 Vrbl 11 16.09 Fair CLR 22 17 73% 76.43 0.0
07 11:55 Vrbl 11 16.09 Fair CLR 22 17 73% 76.45 0.0
07 11:35 W 9 16.09 Fair CLR 22 17 73% 76.45 0.0
07 11:15 W 11 16.09 Fair CLR 21 17 78% 76.45 0.0
07 10:55 SW 15 16.09 Fair CLR 21 17 78% 76.45 0.0
07 10:15 Vrbl 6 16.09 Fair CLR 21 15 69% 76.45 0.0
07 09:55 Calm 16.09 Fair CLR 21 15 69% 76.45 0.0
07 09:35 S 7 16.09 Fair CLR 20 15 73% 76.45 0.0
07 09:15 S 7 16.09 Fair CLR 20 15 73% 76.48 0.0
07 08:55 Vrbl 6 16.09 Fair CLR 19 15 78% 76.45 0.0
07 08:35 E 7 16.09 Fair CLR 19 15 78% 76.45 0.0
07 08:15 E 9 16.09 Fair CLR 18 15 83% 76.45 0.0
07 07:55 Calm 16.09 Fair CLR 17 15 88% 76.45 0.0
07 07:35 Vrbl 7 14.48 Fair CLR 16 15 94% 76.45 0.0
07 07:15 E 9 16.09 Fair CLR 15 14 94% 76.45 0.0
07 06:55 E 11 16.09 Fair CLR 14 14 100% 76.43 0.0
07 06:35 E 13 16.09 Fair CLR 14 13 94% 76.43 0.0
07 06:15 E 9 16.09 Fair CLR 13 13 100% 76.4 0.0
07 05:55 E 9 16.09 Fair CLR 13 13 100% 76.4 0.0
07 05:15 E 13 16.09 Fair CLR 13 13 100% 76.4 0.0
07 04:55 E 9 16.09 Fair CLR 13 13 100% 76.4 0.0
07 04:35 E 11 16.09 Fair CLR 13 13 100% 76.4 0.0
07 03:55 E 9 16.09 Fair CLR 13 13 100% 76.4 0.0
07 03:35 E 9 16.09 Fair CLR 14 14 100% 76.4 0.0
07 03:15 E 9 16.09 Fair CLR 13 13 100% 76.4 0.0
07 02:55 E 7 16.09 Fair CLR 13 13 100% 76.4 0.0
07 02:35 E 9 16.09 Fair CLR 14 14 100% 76.4 0.0
07 01:55 E 9 16.09 Fair CLR 14 14 100% 76.43 0.0
07 01:35 Calm 16.09 Fair CLR 14 14 100% 76.43 0.0
07 01:15 Calm 16.09 Fair CLR 13 13 100% 76.43 0.0
07 00:55 Calm 16.09 Fair CLR 13 13 100% 76.43 0.0
07 00:35 SE 6 16.09 Fair CLR 13 13 100% 76.43 0.0
07 00:15 Calm 16.09 Fair CLR 13 13 100% 76.45 0.0
06 23:35 Calm 16.09 Fair CLR 14 14 100% 76.43 0.0
06 23:15 E 7 16.09 Fair CLR 14 14 100% 76.43 0.0
06 22:55 E 9 16.09 Fair CLR 15 14 94% 76.43 0.0
06 22:35 E 9 16.09 Fair CLR 14 14 100% 76.43 0.0
06 22:15 SE 6 16.09 Fair CLR 14 14 100% 76.43 0.0
06 21:35 SE 6 16.09 Fair CLR 15 14 94% 76.4 0.0
06 21:15 Calm 16.09 Fair CLR 15 14 94% 76.4 0.0
06 20:55 Calm 16.09 Fair CLR 15 14 94% 76.38 0.0
06 20:35 Calm 14.48 Fair CLR 14 14 100% 76.38 0.0
06 20:15 Calm 16.09 Fair CLR 14 14 100% 76.38 0.0
06 19:55 Calm 16.09 Fair CLR 16 14 88% 76.35 0.0 0.03
06 19:35 Calm 16.09 Fair CLR 18 14 78% 76.35 0.0
06 18:55 W 7 16.09 Fair CLR 19 14 73% 76.35 0.0
06 18:35 Calm 16.09 Fair CLR 19 14 73% 76.35 0.0
06 18:15 SW 7 16.09 Fair CLR 20 14 69% 76.38 0.0
06 17:55 W 7 16.09 Fair CLR 20 14 69% 76.35 0.0
06 17:35 W 7 16.09 Fair CLR 19 14 73% 76.35 0.0
06 17:15 Calm 16.09 Fair CLR 20 14 69% 76.38 0.0
06 16:55 NW 9 16.09 Fair CLR 20 14 69% 76.38 0.0
06 16:35 NW 11 16.09 A Few Clouds FEW024 19 14 73% 76.38 0.0
06 16:15 Vrbl 9 16.09 Partly Cloudy SCT024 19 14 73% 76.38 0.0
06 15:55 W 7 16.09 Partly Cloudy SCT023 19 14 73% 76.4 0.0
06 15:35 Calm 16.09 Mostly Cloudy BKN021 18 14 78% 76.43 0.0
06 15:15 W 6 16.09 Overcast OVC021 18 14 78% 76.45 0.0
06 14:55 W 9 16.09 Overcast OVC020 17 14 83% 76.48 0.0
06 14:35 Vrbl 7 16.09 Overcast OVC020 17 13 77% 76.5 0.0
06 14:15 Calm 16.09 Overcast OVC020 17 13 77% 76.5 0.0
06 13:55 Vrbl 7 16.09 Overcast OVC019 16 13 83% 76.53 0.0
06 13:35 NW 7 16.09 Overcast OVC019 16 13 83% 76.53 0.0
06 13:15 W 13 14.48 Overcast OVC017 16 14 88% 76.56 0.0
06 12:55 W 7 16.09 Overcast BKN018 OVC022 16 13 83% 76.56 0.0
06 12:35 Vrbl 7 16.09 Overcast SCT016 OVC022 16 14 88% 76.56 0.0
06 12:15 W 7 16.09 Overcast OVC016 16 13 83% 76.58 0.0
06 11:55 NW 9 16.09 Overcast BKN016 OVC022 15 13 88% 76.58 0.0
06 11:35 W 7 16.09 Overcast OVC022 16 13 83% 76.58 0.0
06 11:15 Calm 16.09 Overcast SCT016 OVC022 15 13 88% 76.58 0.0
06 10:55 Calm 16.09 Overcast BKN018 OVC023 15 13 88% 76.58 0.0
06 10:35 Calm 16.09 Overcast SCT015 OVC023 15 13 88% 76.58 0.0
06 10:15 Calm 16.09 Overcast SCT016 OVC025 15 13 88% 76.58 0.0
06 09:55 W 7 14.48 Overcast OVC025 15 13 88% 76.58 0.0
06 09:35 W 7 16.09 Overcast OVC025 15 13 88% 76.58 0.0
06 09:15 Calm 14.48 Overcast OVC026 14 13 94% 76.56 0.0
06 08:55 Calm 16.09 Overcast OVC026 14 13 94% 76.56 0.0
06 08:35 Calm 16.09 Overcast OVC028 14 13 94% 76.56 0.0
06 08:15 Calm 16.09 Overcast OVC028 14 13 94% 76.56 0.0
06 07:55 Calm 14.48 Overcast OVC029 14 13 94% 76.56 0.0
06 07:35 Calm 16.09 Overcast OVC029 13 13 100% 76.56 0.0
06 07:15 Calm 16.09 Overcast OVC029 13 13 100% 76.53 0.0
06 06:55 Calm 16.09 Overcast OVC030 13 12 94% 76.53 0.0
06 06:35 Calm 16.09 Overcast OVC031 13 12 94% 76.5 0.0
06 06:15 E 6 16.09 Overcast OVC032 12 12 100% 76.5 0.0
06 05:35 Calm 16.09 Overcast OVC033 12 12 100% 76.5 0.0
06 05:15 Calm 16.09 Overcast OVC034 12 12 100% 76.48 0.0
06 04:35 Calm 16.09 Overcast OVC035 12 12 100% 76.48 0.0
06 04:15 Calm 16.09 Overcast OVC035 12 12 100% 76.45 0.0
06 03:55 Calm 16.09 Overcast OVC036 12 12 100% 76.45 0.0
06 03:30 Calm 16.09 Overcast OVC037 12 12 100% 76.45 0.0
06 03:15 Calm 16.09 Overcast OVC037 12 12 100% 76.43 0.0
06 02:55 Calm 16.09 Overcast OVC037 12 12 100% 76.43 0.0
06 02:35 Calm 16.09 Overcast OVC038 12 12 100% 76.43 0.0
06 02:15 E 6 16.09 Overcast OVC038 12 12 100% 76.43 0.0
06 01:55 Calm 16.09 Overcast FEW019 OVC038 13 12 94% 76.43 0.0
06 01:35 Calm 16.09 Overcast FEW012 BKN018 OVC039 13 12 94% 76.43 0.0
06 01:15 Calm 16.09 Overcast BKN012 BKN017 OVC021 13 12 94% 76.43 0.0
06 00:55 Calm 16.09 Overcast OVC013 13 12 94% 76.43 0.0
06 00:35 Calm 16.09 Overcast BKN013 OVC040 12 12 100% 76.43 0.0
06 00:15 Calm 16.09 Overcast OVC040 12 12 100% 76.4 0.0
05 23:55 Calm 16.09 Overcast SCT025 OVC040 13 12 94% 76.4 0.0
05 23:35 Calm 16.09 Overcast FEW017 OVC025 13 12 94% 76.38 0.0
05 23:15 Calm 16.09 Overcast FEW017 OVC023 13 12 94% 76.38 0.0
05 22:55 Calm 16.09 Overcast SCT017 BKN023 OVC038 13 12 94% 76.35 0.0
05 22:35 Calm 16.09 Overcast FEW017 FEW021 OVC037 13 12 94% 76.35 0.0
05 22:15 Calm 16.09 Overcast OVC037 13 12 94% 76.33 0.0
05 21:55 SE 6 16.09 Overcast OVC037 13 12 94% 76.33 0.0
05 21:35 Calm 16.09 Overcast OVC038 13 12 94% 76.3 0.0
05 21:15 SE 6 16.09 Overcast OVC038 13 12 94% 76.3 0.0
05 20:55 SE 6 16.09 Overcast OVC037 13 12 94% 76.28 0.0
05 20:35 SE 9 16.09 Overcast OVC038 13 12 94% 76.25 0.0
05 20:15 Calm 16.09 Overcast OVC037 13 12 94% 76.25 0.0
05 19:55 SE 6 16.09 Overcast OVC037 14 11 82% 76.23 0.0
05 19:35 S 7 16.09 Overcast OVC037 14 11 82% 76.2 0.0
05 19:15 SE 7 16.09 Overcast FEW017 OVC037 14 12 88% 76.2 0.0
05 18:55 S 7 16.09 Overcast SCT017 OVC037 14 12 88% 76.17 0.0
05 18:35 SE 11 16.09 Overcast OVC038 14 11 82% 76.17 0.0
05 18:15 SE 9 16.09 Overcast OVC039 15 12 82% 76.17 0.0
05 17:55 E 7 16.09 Overcast FEW031 OVC037 15 12 82% 76.17 0.0
05 17:35 E 7 16.09 Overcast FEW019 SCT025 OVC037 15 12 82% 76.17 0.0
05 17:15 Calm 14.48 Overcast BKN020 OVC028 14 11 82% 76.17 0.0
05 16:55 Calm 16.09 Overcast BKN020 OVC028 14 11 82% 76.15 0.0
05 16:35 Calm 16.09 Overcast BKN020 OVC028 14 11 82% 76.15 0.0
05 16:15 Vrbl 7 16.09 Overcast OVC021 14 11 82% 76.15 0.0
05 15:55 SW 6 16.09 Overcast BKN019 OVC024 14 11 82% 76.17 0.0
05 15:35 W 9 16.09 Overcast BKN019 BKN026 OVC032 14 11 82% 76.17 0.0
Date Time (pdt) Wind (kph) Vis. (km) Weather Sky Cond. Air Dwpt Max. Min. Relative Humidity Wind Chill (°C) Heat Index (°C) altimeter (cm) sea level (mb) 1 hr 3 hr 6 hr
6 hour
Temperature (ºC) Pressure Precipitation (cm)